Dauntless Aviation
Airports Asia Iran
OIAA
ABD

Abadan Airport

Abadan, IRAN

Airport Info
Suggest Updated Information for this Airport

Location

Latitude / Longitude: 30°22'15"N / 48°13'41"E
  30°22.266'N / 48°13.698'E
  30.3711 / 48.2283

Nearby radio navigation aids

ABD ABADAN VOR/DME. 145.2° 1.5nm from ABD to field.

Runway Information

Runway 14L/32R

Dimensions: 7434 x 115 ft.
Surface: ASP
 
Runway 14L
Runway 32R
Latitude: 30.371333 30.354683
Longitude: 48.228969 48.242617
Elevation: 18 ft. 18 ft.
Runway true heading: 143.7 323.7
 

Runway 14R/32L

Dimensions: 10184 x 148 ft.
Surface: ASP
 
Runway 14R
Runway 32L
Latitude: 30.37875 30.35595
Longitude: 48.2212 48.239892
Elevation: 18 ft. 18 ft.
Runway true heading: 143.7 323.7
 
Satellite photo at:
Airport distance calculator
From:
Weather Reports

METAR

OIAA

OIAA 180300Z 26008KT CAVOK 29/13 Q0997
ORMM
31.3nm W
ORMM 180300Z 24013KT CAVOK 29/10 Q0998 NOSIG

TAF

OIAA
TAF OIAA 172300Z 1800/1906 29008KT CAVOK BECMG 1806/1807 29018KT BECMG 1816/1817 29008KT BECMG 1905/1906 29018KT
ORMM
31.3nm W
TAF ORMM 172200Z 1800/1824 31015KT CAVOK TEMPO 1807/1821 G32KT 6000 NSC PROB40 TEMPO 1816/1821 G40KT 5000 BLDU NSC
Safelog

 

Dauntless Aviation

© 2007-2019 Dauntless Aviation, all rights reserved
Information provided via PilotNav comes from a variety of official and unofficial data sources. As errors are possible, do not use PilotNav for primary flight planning purposes. Verify any information that you receive via PilotNav with current and canonical charts and other official documents. The material in this database is subject to database copyrights held by Dauntless Aviation and may not be copied without the express permission of Dauntless Aviation - licenses for use of part of all of this data are available for purchase; enquire via the Dauntless Aviation helpdesk. A number of mechanisms and markers exist in the database to protect against and identify infringement / copyright. Automated queries against this website are stictly prohibited, and all activity is logged and analyzed.